Time;durP1;ratioP1;P1;durP2;ratioP2;P2;SDS_P1;SDS_P2;PMS_P1;PMS_P2;Temp;Humidity;BMP_temperature;BMP_pressure;BME280_temperature;BME280_humidity;BME280_pressure;Samples;Min_cycle;Max_cycle;Signal;HPM_P1;HPM_P2
2022/05/24 00:00:47;;;;;;;;;;;;;;;;;;;;;
2022/05/24 00:03:20;;;;;;;;;2.50;2.00;;;;;-143.39;100.00;63593.47;4809505;29;72032;-79
2022/05/24 00:05:49;;;;;;;;;2.00;2.00;;;;;-143.39;100.00;63593.47;4823308;29;47267;-79
2022/05/24 00:08:17;;;;;;;;;2.50;2.00;;;;;-143.39;100.00;63593.47;4809570;29;45504;-79
2022/05/24 00:10:45;;;;;;;;;2.00;2.00;;;;;-143.39;100.00;63593.47;4806301;29;45404;-78
2022/05/24 00:13:31;;;;;;;;;1.75;1.75;;;;;-143.39;100.00;63593.47;4815801;29;46553;-79
2022/05/24 00:16:15;;;;;;;;;;;;;;;;;;;;;
2022/05/24 00:18:49;;;;;;;;;1.25;1.25;;;;;-143.39;100.00;63593.47;4808573;29;72045;-79
2022/05/24 00:21:22;;;;;;;;;2.00;1.00;;;;;-143.39;100.00;63593.47;4809742;29;45530;-79
2022/05/24 00:23:57;;;;;;;;;3.00;1.00;;;;;-143.39;100.00;63593.47;4809189;29;46970;-79
2022/05/24 00:26:40;;;;;;;;;;;;;;;;;;;;;
2022/05/24 00:29:06;;;;;;;;;0.00;0.00;;;;;-143.39;100.00;63593.47;4808595;29;72866;-79
2022/05/24 00:31:54;;;;;;;;;3.00;2.00;;;;;-143.39;100.00;63593.47;4822309;29;45472;-79
2022/05/24 00:34:19;;;;;;;;;1.00;1.00;;;;;-143.39;100.00;63593.47;4809154;29;45345;-79
2022/05/24 00:36:55;;;;;;;;;1.50;1.50;;;;;-143.39;100.00;63593.47;4809574;29;45355;-79
2022/05/24 00:39:33;;;;;;;;;;;;;;;;;;;;;
2022/05/24 00:42:21;;;;;;;;;;;;;;;;;;;;;
2022/05/24 00:45:00;;;;;;;;;3.75;2.25;;;;;-143.39;100.00;63593.47;4808541;29;72999;-79
2022/05/24 00:47:45;;;;;;;;;3.75;1.75;;;;;-143.39;100.00;63593.47;4809553;29;45505;-79
2022/05/24 00:50:29;;;;;;;;;;;;;;;;;;;;;
2022/05/24 00:53:23;;;;;;;;;2.25;1.75;;;;;-143.39;100.00;63593.47;4808060;29;68784;-79
2022/05/24 00:56:24;;;;;;;;;3.50;1.00;;;;;-143.39;100.00;63593.47;4809513;29;45519;-79
2022/05/24 00:59:09;;;;;;;;;;;;;;;;;;;;;
2022/05/24 01:01:51;;;;;;;;;1.50;1.50;;;;;-143.39;100.00;63593.47;4806931;29;71707;-79
2022/05/24 01:04:19;;;;;;;;;3.00;1.00;;;;;-143.39;100.00;63593.47;4796016;29;45547;-79
2022/05/24 01:06:56;;;;;;;;;;;;;;;;;;;;;
2022/05/24 01:09:32;;;;;;;;;1.75;1.00;;;;;-143.39;100.00;63593.47;4810461;29;75408;-79
2022/05/24 01:12:16;;;;;;;;;;;;;;;;;;;;;
2022/05/24 01:14:44;;;;;;;;;2.00;1.00;;;;;-143.39;100.00;63593.47;4802921;29;69067;-79
2022/05/24 01:17:12;;;;;;;;;1.25;1.25;;;;;-143.39;100.00;63593.47;4812189;29;45418;-79
2022/05/24 01:19:43;;;;;;;;;2.50;1.00;;;;;-143.39;100.00;63593.47;4811622;29;46288;-79
2022/05/24 01:22:30;;;;;;;;;2.25;2.00;;;;;-143.39;100.00;63593.47;4812160;29;45782;-79
2022/05/24 01:25:11;;;;;;;;;2.00;2.00;;;;;-143.39;100.00;63593.47;4811088;29;45235;-79
2022/05/24 01:27:42;;;;;;;;;1.50;1.25;;;;;-143.39;100.00;63593.47;4812224;29;45346;-79
2022/05/24 01:30:10;;;;;;;;;1.00;1.00;;;;;-143.39;100.00;63593.47;4811894;29;46201;-79
2022/05/24 01:38:24;;;;;;;;;1.50;1.50;;;;;-143.39;100.00;63593.47;4811592;29;45407;-79
2022/05/24 01:40:54;;;;;;;;;4.00;1.00;;;;;-143.39;100.00;63593.47;4809783;29;47283;-79
2022/05/24 01:43:34;;;;;;;;;;;;;;;;;;;;;
2022/05/24 01:46:05;;;;;;;;;2.75;1.00;;;;;-143.39;100.00;63593.47;4811177;29;68931;-79
2022/05/24 01:48:46;;;;;;;;;2.00;1.00;;;;;-143.39;100.00;63593.47;4810120;29;45551;-79
2022/05/24 01:51:15;;;;;;;;;4.25;1.00;;;;;-143.39;100.00;63593.47;4808575;29;45414;-79
2022/05/24 01:53:48;;;;;;;;;1.50;1.00;;;;;-143.39;100.00;63593.47;4811507;29;45363;-79
2022/05/24 01:56:28;;;;;;;;;0.00;0.00;;;;;-143.39;100.00;63593.47;4814280;29;45518;-79
2022/05/24 01:59:00;;;;;;;;;2.00;1.00;;;;;-143.39;100.00;63593.47;4811310;29;45463;-79
2022/05/24 02:01:50;;;;;;;;;0.75;0.75;;;;;-143.39;100.00;63593.47;4815059;29;45625;-79
2022/05/24 02:04:28;;;;;;;;;;;;;;;;;;;;;
2022/05/24 02:07:10;;;;;;;;;0.75;0.75;;;;;-143.39;100.00;63593.47;4810659;29;68111;-79
2022/05/24 02:09:41;;;;;;;;;1.00;1.00;;;;;-143.39;100.00;63593.47;4811155;29;45463;-79
2022/05/24 02:12:24;;;;;;;;;3.00;1.00;;;;;-143.39;100.00;63593.47;4811107;29;47456;-79
2022/05/24 02:15:12;;;;;;;;;1.00;1.00;;;;;-143.39;100.00;63593.47;4802824;29;45322;-79
2022/05/24 02:18:01;;;;;;;;;1.00;1.00;;;;;-143.39;100.00;63593.47;4811532;29;45275;-79
2022/05/24 02:20:34;;;;;;;;;0.75;0.75;;;;;-143.39;100.00;63593.47;4809639;29;45429;-79
2022/05/24 02:23:06;;;;;;;;;1.00;1.00;;;;;-143.39;100.00;63593.47;4809442;29;48434;-79
2022/05/24 02:25:45;;;;;;;;;0.50;0.50;;;;;-143.39;100.00;63593.47;4809944;29;45591;-79
2022/05/24 02:28:34;;;;;;;;;;;;;;;;;;;;;
2022/05/24 02:31:17;;;;;;;;;;;;;;;;;;;;;
2022/05/24 02:33:53;;;;;;;;;1.75;1.00;;;;;-143.39;100.00;63593.47;4810264;29;74119;-79
2022/05/24 02:36:31;;;;;;;;;;;;;;;;;;;;;
2022/05/24 02:39:11;;;;;;;;;;;;;;;;;;;;;
2022/05/24 02:41:41;;;;;;;;;2.00;0.00;;;;;-143.39;100.00;63593.47;4803309;29;72993;-79
2022/05/24 02:44:17;;;;;;;;;0.00;0.00;;;;;-143.39;100.00;63593.47;4824501;29;48217;-79
2022/05/24 02:46:53;;;;;;;;;0.50;0.50;;;;;-143.39;100.00;63593.47;4794441;29;45488;-79
2022/05/24 02:49:30;;;;;;;;;0.50;0.00;;;;;-143.39;100.00;63593.47;4823174;29;45407;-79
2022/05/24 02:52:18;;;;;;;;;1.25;0.25;;;;;-143.39;100.00;63593.47;4794242;29;45687;-78
2022/05/24 02:54:58;;;;;;;;;;;;;;;;;;;;;
2022/05/24 02:57:44;;;;;;;;;;;;;;;;;;;;;
2022/05/24 03:00:42;;;;;;;;;1.00;1.00;;;;;-143.39;100.00;63593.47;4810120;29;68933;-79
2022/05/24 03:03:18;;;;;;;;;;;;;;;;;;;;;
2022/05/24 03:05:56;;;;;;;;;;;;;;;;;;;;;
2022/05/24 03:14:14;;;;;;;;;3.00;0.00;;;;;-143.39;100.00;63593.47;4810537;29;45442;-79
2022/05/24 03:14:19;;;;;;;;;2.50;1.00;;;;;-143.39;100.00;63593.47;4812936;29;45532;-79
2022/05/24 03:16:59;;;;;;;;;;;;;;;;;;;;;
2022/05/24 03:19:27;;;;;;;;;3.50;1.00;;;;;-143.39;100.00;63593.47;4809611;29;71497;-79
2022/05/24 03:21:57;;;;;;;;;1.00;1.00;;;;;-143.39;100.00;63593.47;4809076;29;45457;-79
2022/05/24 03:24:26;;;;;;;;;3.00;1.00;;;;;-143.39;100.00;63593.47;4810329;29;45490;-79
2022/05/24 03:26:56;;;;;;;;;3.25;0.50;;;;;-143.39;100.00;63593.47;4808949;29;48069;-79
2022/05/24 03:29:29;;;;;;;;;0.25;0.25;;;;;-143.39;100.00;63593.47;4809223;29;46061;-79
2022/05/24 03:31:57;;;;;;;;;1.00;0.00;;;;;-143.39;100.00;63593.47;4824280;29;45424;-79
2022/05/24 03:34:30;;;;;;;;;1.75;0.50;;;;;-143.39;100.00;63593.47;4810378;29;45435;-79
2022/05/24 03:37:05;;;;;;;;;1.50;0.25;;;;;-143.39;100.00;63593.47;4810303;29;45470;-79
2022/05/24 03:39:46;;;;;;;;;;;;;;;;;;;;;
2022/05/24 03:42:18;;;;;;;;;1.00;1.00;;;;;-143.39;100.00;63593.47;4809053;29;67826;-79
2022/05/24 03:44:51;;;;;;;;;4.00;1.00;;;;;-143.39;100.00;63593.47;4810439;29;45295;-79
2022/05/24 03:47:20;;;;;;;;;2.00;0.00;;;;;-143.39;100.00;63593.47;4810092;29;45350;-79
2022/05/24 03:49:48;;;;;;;;;1.25;1.00;;;;;-143.39;100.00;63593.47;4809675;29;45537;-79
2022/05/24 03:52:22;;;;;;;;;1.25;0.00;;;;;-143.39;100.00;63593.47;4810062;29;45371;-79
2022/05/24 03:54:55;;;;;;;;;2.00;1.50;;;;;-143.39;100.00;63593.47;4808803;29;45555;-79
2022/05/24 04:00:19;;;;;;;;;0.00;0.00;;;;;-143.39;100.00;63593.47;4811819;29;45455;-79
2022/05/24 04:02:48;;;;;;;;;0.25;0.00;;;;;-143.39;100.00;63593.47;4810235;29;45287;-79
2022/05/24 04:05:18;;;;;;;;;2.00;1.00;;;;;-143.39;100.00;63593.47;4810114;29;45431;-79
2022/05/24 04:07:49;;;;;;;;;2.50;1.00;;;;;-143.39;100.00;63593.47;4809390;29;45439;-79
2022/05/24 04:10:19;;;;;;;;;1.00;1.00;;;;;-143.39;100.00;63593.47;4810036;29;45511;-79
2022/05/24 04:12:52;;;;;;;;;0.00;0.00;;;;;-143.39;100.00;63593.47;4813273;29;45333;-79
2022/05/24 04:15:28;;;;;;;;;;;;;;;;;;;;;
2022/05/24 04:17:57;;;;;;;;;0.25;0.00;;;;;-143.39;100.00;63593.47;4808284;29;75397;-79
2022/05/24 04:20:33;;;;;;;;;1.50;1.00;;;;;-143.39;100.00;63593.47;4809968;29;45351;-79
2022/05/24 04:23:09;;;;;;;;;;;;;;;;;;;;;
2022/05/24 04:25:37;;;;;;;;;0.00;0.00;;;;;-143.39;100.00;63593.47;4808961;29;72950;-78
2022/05/24 04:28:03;;;;;;;;;1.00;1.00;;;;;-143.39;100.00;63593.47;4809500;29;46383;-79
2022/05/24 04:30:33;;;;;;;;;1.25;1.00;;;;;-143.39;100.00;63593.47;4793325;29;45447;-79
2022/05/24 04:32:59;;;;;;;;;2.00;1.00;;;;;-143.39;100.00;63593.47;4809964;29;45307;-79
2022/05/24 04:35:25;;;;;;;;;0.00;0.00;;;;;-143.39;100.00;63593.47;4809688;29;45598;-79
2022/05/24 04:38:00;;;;;;;;;0.00;0.00;;;;;-143.39;100.00;63593.47;4810615;29;46295;-79
2022/05/24 04:43:15;;;;;;;;;0.75;0.00;;;;;-143.39;100.00;63593.47;4812846;29;45499;-79
2022/05/24 04:45:40;;;;;;;;;0.00;0.00;;;;;-143.39;100.00;63593.47;4812856;29;45255;-79
2022/05/24 04:48:08;;;;;;;;;1.00;1.00;;;;;-143.39;100.00;63593.47;4812384;29;46181;-79
2022/05/24 04:50:34;;;;;;;;;1.00;1.00;;;;;-143.39;100.00;63593.47;4811802;29;45333;-79
2022/05/24 04:53:09;;;;;;;;;3.00;2.00;;;;;-143.39;100.00;63593.47;4811764;29;45262;-79
2022/05/24 04:55:49;;;;;;;;;;;;;;;;;;;;;
2022/05/24 04:58:24;;;;;;;;;0.00;0.00;;;;;-143.39;100.00;63593.47;4813874;29;75318;-79
2022/05/24 05:00:52;;;;;;;;;0.50;0.25;;;;;-143.39;100.00;63593.47;4816294;29;45627;-79
2022/05/24 05:03:29;;;;;;;;;;;;;;;;;;;;;
2022/05/24 05:06:22;;;;;;;;;2.25;1.00;;;;;-143.39;100.00;63593.47;4810041;29;72969;-79
2022/05/24 05:09:05;;;;;;;;;;;;;;;;;;;;;
2022/05/24 05:11:36;;;;;;;;;0.25;0.25;;;;;-143.39;100.00;63593.47;4810866;29;73017;-79
2022/05/24 05:14:23;;;;;;;;;;;;;;;;;;;;;
2022/05/24 05:16:51;;;;;;;;;2.00;0.00;;;;;-143.39;100.00;63593.47;4811478;29;72884;-79
2022/05/24 05:19:30;;;;;;;;;;;;;;;;;;;;;
2022/05/24 05:22:02;;;;;;;;;0.00;0.00;;;;;-143.39;100.00;63593.47;4809829;29;72879;-79
2022/05/24 05:24:34;;;;;;;;;0.00;0.00;;;;;-143.39;100.00;63593.47;4812205;29;45463;-79
2022/05/24 05:26:59;;;;;;;;;1.25;1.00;;;;;-143.39;100.00;63593.47;4804719;29;45486;-78
2022/05/24 05:32:26;;;;;;;;;;;;;;;;;;;;;
2022/05/24 05:34:54;;;;;;;;;1.25;1.00;;;;;-143.39;100.00;63593.47;4798615;29;67307;-78
2022/05/24 05:37:27;;;;;;;;;3.00;1.00;;;;;-143.39;100.00;63593.47;4799791;29;45875;-77
2022/05/24 05:39:53;;;;;;;;;2.50;1.00;;;;;-143.39;100.00;63593.47;4801485;29;45540;-78
2022/05/24 05:42:27;;;;;;;;;1.00;1.00;;;;;-143.39;100.00;63593.47;4804611;29;45475;-77
2022/05/24 05:45:03;;;;;;;;;2.75;1.25;;;;;-143.39;100.00;63593.47;4802609;29;45628;-77
2022/05/24 05:50:58;;;;;;;;;1.00;1.00;;;;;-143.39;100.00;63593.47;1368844;27;46087;-80
2022/05/24 05:53:23;;;;;;;;;2.75;1.00;;;;;-143.39;100.00;63593.47;4837354;29;45614;-79
2022/05/24 05:56:02;;;;;;;;;2.25;1.25;;;;;-143.39;100.00;63593.47;4830792;29;45433;-78
2022/05/24 05:58:28;;;;;;;;;0.00;0.00;;;;;-143.39;100.00;63593.47;4830211;29;45458;-78
2022/05/24 06:01:28;;;;;;;;;1.25;1.00;;;;;-143.39;100.00;63593.47;4812792;29;45512;-78
2022/05/24 06:04:45;;;;;;;;;;;;;;;;;;;;;
2022/05/24 06:07:53;;;;;;;;;;;;;;;;;;;;;
2022/05/24 06:10:22;;;;;;;;;2.75;1.00;;;;;-143.39;100.00;63593.47;4818590;29;73284;-78
2022/05/24 06:13:03;;;;;;;;;1.00;1.00;;;;;-143.39;100.00;63593.47;4834376;29;46439;-81
2022/05/24 06:16:20;;;;;;;;;;;;;;;;;;;;;
2022/05/24 06:19:39;;;;;;;;;;;;;;;;;;;;;
2022/05/24 06:29:48;;;;;;;;;1.00;1.00;;;;;-143.39;100.00;63593.47;4747775;29;45471;-81
2022/05/24 14:08:07;;;;;;;;;;;;;;;;;;;;;
2022/05/24 14:39:21;;;;;;;;;;;;;;;;;;;;;
2022/05/24 14:55:44;;;;;;;;;1.00;1.00;;;;;-143.39;100.00;63593.47;4702269;30;45593;-84
2022/05/24 14:59:09;;;;;;;;;;;;;;;;;;;;;
2022/05/24 15:06:09;;;;;;;;;;;;;;;;;;;;;
2022/05/24 15:24:04;;;;;;;;;;;;;;;;;;;;;
2022/05/24 15:26:47;;;;;;;;;0.00;0.00;;;;;-143.39;100.00;63593.47;4861917;29;68925;-83
2022/05/24 15:29:17;;;;;;;;;1.75;1.00;;;;;-143.39;100.00;63593.47;4857454;29;45428;-83
2022/05/24 15:31:50;;;;;;;;;0.00;0.00;;;;;-143.39;100.00;63593.47;4854674;29;46345;-83
2022/05/24 15:34:16;;;;;;;;;5.25;2.00;;;;;-143.39;100.00;63593.47;4851575;29;45509;-82
2022/05/24 15:36:42;;;;;;;;;2.00;0.00;;;;;-143.39;100.00;63593.47;4855568;29;45151;-82
2022/05/24 15:39:07;;;;;;;;;0.75;0.75;;;;;-143.39;100.00;63593.47;4850599;29;45618;-82
2022/05/24 15:41:35;;;;;;;;;2.00;0.00;;;;;-143.39;100.00;63593.47;4847137;29;45529;-82
2022/05/24 15:44:02;;;;;;;;;0.50;0.25;;;;;-143.39;100.00;63593.47;4847341;29;45609;-82
2022/05/24 15:46:31;;;;;;;;;0.00;0.00;;;;;-143.39;100.00;63593.47;4848623;29;45379;-82
2022/05/24 15:48:56;;;;;;;;;0.00;0.00;;;;;-143.39;100.00;63593.47;4846947;29;45552;-82
2022/05/24 15:51:23;;;;;;;;;0.25;0.25;;;;;-143.39;100.00;63593.47;4845776;29;46002;-82
2022/05/24 15:53:49;;;;;;;;;1.25;1.25;;;;;-143.39;100.00;63593.47;4845610;29;45447;-82
2022/05/24 15:56:43;;;;;;;;;2.00;0.50;;;;;-143.39;100.00;63593.47;4847608;29;45525;-82
2022/05/24 15:59:13;;;;;;;;;1.00;0.00;;;;;-143.39;100.00;63593.47;4847262;29;46592;-81
2022/05/24 16:11:52;;;;;;;;;1.00;1.00;;;;;-143.39;100.00;63593.47;4844330;29;45473;-82
2022/05/24 16:14:26;;;;;;;;;2.00;1.00;;;;;-143.39;100.00;63593.47;4836743;29;46612;-82
2022/05/24 16:16:56;;;;;;;;;1.00;1.00;;;;;-143.39;100.00;63593.47;4848829;29;45336;-82
2022/05/24 16:19:21;;;;;;;;;0.50;0.50;;;;;-143.39;100.00;63593.47;4846917;29;45476;-83
2022/05/24 16:21:47;;;;;;;;;1.00;1.00;;;;;-143.39;100.00;63593.47;4845434;29;45515;-82
2022/05/24 16:24:12;;;;;;;;;3.00;0.00;;;;;-143.39;100.00;63593.47;4843390;29;46281;-82
2022/05/24 16:26:39;;;;;;;;;2.25;0.50;;;;;-143.39;100.00;63593.47;4848178;29;45555;-82
2022/05/24 16:29:04;;;;;;;;;1.50;0.00;;;;;-143.39;100.00;63593.47;4849303;29;45509;-82
2022/05/24 16:31:31;;;;;;;;;0.00;0.00;;;;;-143.39;100.00;63593.47;4854667;29;45558;-81
2022/05/24 16:33:56;;;;;;;;;1.50;1.00;;;;;-143.39;100.00;63593.47;4865283;29;46456;-81
2022/05/24 16:36:24;;;;;;;;;2.00;1.00;;;;;-143.39;100.00;63593.47;4849527;29;45309;-81
2022/05/24 16:38:49;;;;;;;;;1.00;1.00;;;;;-143.39;100.00;63593.47;4860222;29;45512;-81
2022/05/24 16:41:15;;;;;;;;;1.00;0.00;;;;;-143.39;100.00;63593.47;4857321;29;45285;-81
2022/05/24 16:43:42;;;;;;;;;1.00;1.00;;;;;-143.39;100.00;63593.47;4864899;29;45361;-81
2022/05/24 16:46:22;;;;;;;;;;;;;;;;;;;;;
2022/05/24 16:48:48;;;;;;;;;2.00;1.50;;;;;-143.39;100.00;63593.47;4867525;29;68864;-82
2022/05/24 16:52:13;;;;;;;;;;;;;;;;;;;;;
2022/05/24 17:00:17;;;;;;;;;;;;;;;;;;;;;
2022/05/24 17:03:18;;;;;;;;;0.00;0.00;;;;;-143.39;100.00;63593.47;4847861;29;71530;-81
2022/05/24 17:05:59;;;;;;;;;;;;;;;;;;;;;
2022/05/24 17:08:39;;;;;;;;;;;;;;;;;;;;;
2022/05/24 17:11:20;;;;;;;;;;;;;;;;;;;;;
2022/05/24 17:13:49;;;;;;;;;1.00;1.00;;;;;-143.39;100.00;63593.47;4851009;29;72843;-81
2022/05/24 17:16:32;;;;;;;;;3.00;2.00;;;;;-143.39;100.00;63593.47;4882087;29;46211;-82
2022/05/24 17:18:57;;;;;;;;;0.25;0.25;;;;;-143.39;100.00;63593.47;4864067;29;45301;-82
2022/05/24 17:21:22;;;;;;;;;1.75;1.00;;;;;-143.39;100.00;63593.47;4857157;29;45740;-81
2022/05/24 17:23:49;;;;;;;;;3.75;1.00;;;;;-143.39;100.00;63593.47;4866039;29;45560;-81
2022/05/24 17:26:15;;;;;;;;;2.75;1.00;;;;;-143.39;100.00;63593.47;4848397;29;45900;-81
2022/05/24 17:28:40;;;;;;;;;5.00;2.25;;;;;-143.39;100.00;63593.47;4852482;29;45403;-81
2022/05/24 17:31:06;;;;;;;;;1.25;1.25;;;;;-143.39;100.00;63593.47;4863197;29;45389;-81
2022/05/24 17:33:32;;;;;;;;;2.75;1.00;;;;;-143.39;100.00;63593.47;4849853;29;45266;-81
2022/05/24 17:35:58;;;;;;;;;3.50;2.00;;;;;-143.39;100.00;63593.47;4862692;29;45992;-81
2022/05/24 17:38:32;;;;;;;;;7.50;2.75;;;;;-143.39;100.00;63593.47;4847416;29;45670;-82
2022/05/24 17:41:06;;;;;;;;;1.00;1.00;;;;;-143.39;100.00;63593.47;4863832;29;45460;-82
2022/05/24 17:43:34;;;;;;;;;1.00;1.00;;;;;-143.39;100.00;63593.47;4849579;29;45555;-82
2022/05/24 17:46:00;;;;;;;;;3.00;3.00;;;;;-143.39;100.00;63593.47;4848394;29;46463;-82
2022/05/24 17:51:42;;;;;;;;;1.00;1.00;;;;;-143.39;100.00;63593.47;4835092;29;45529;-83
2022/05/24 20:03:17;;;;;;;;;3.75;1.50;;;;;-143.39;100.00;63593.47;4857050;29;45495;-83
2022/05/24 20:05:56;;;;;;;;;1.50;1.00;;;;;-143.39;100.00;63593.47;4845287;29;45711;-82
2022/05/24 20:08:21;;;;;;;;;2.50;1.75;;;;;-143.39;100.00;63593.47;4850507;29;46988;-82
2022/05/24 20:10:51;;;;;;;;;1.50;0.50;;;;;-143.39;100.00;63593.47;4850778;29;45250;-82
2022/05/24 20:13:39;;;;;;;;;2.00;1.00;;;;;-143.39;100.00;63593.47;4841003;29;45474;-82
2022/05/24 20:16:39;;;;;;;;;;;;;;;;;;;;;
2022/05/24 20:19:08;;;;;;;;;1.25;1.00;;;;;-143.39;100.00;63593.47;4844497;29;73920;-83
2022/05/24 20:32:52;;;;;;;;;;;;;;;;;;;;;
2022/05/24 20:39:27;;;;;;;;;;;;;;;;;;;;;
2022/05/24 21:07:59;;;;;;;;;2.00;1.00;;;;;-143.39;100.00;63593.47;4866776;29;45450;-79
2022/05/24 21:10:37;;;;;;;;;2.75;1.00;;;;;-143.39;100.00;63593.47;4846651;29;45555;-80
2022/05/24 21:13:03;;;;;;;;;0.00;0.00;;;;;-143.39;100.00;63593.47;4868044;29;45477;-79
2022/05/24 21:15:37;;;;;;;;;1.00;1.00;;;;;-143.39;100.00;63593.47;4862480;29;45468;-80
2022/05/24 21:18:13;;;;;;;;;;;;;;;;;;;;;
2022/05/24 21:20:47;;;;;;;;;1.00;1.00;;;;;-143.39;100.00;63593.47;4861625;29;72236;-81
2022/05/24 21:23:25;;;;;;;;;;;;;;;;;;;;;
2022/05/24 21:29:03;;;;;;;;;1.75;1.75;;;;;-143.39;100.00;63593.47;4865555;29;45898;-81
2022/05/24 21:31:44;;;;;;;;;;;;;;;;;;;;;
2022/05/24 21:34:14;;;;;;;;;1.00;1.00;;;;;-143.39;100.00;63593.47;4864366;29;69663;-81
2022/05/24 21:37:03;;;;;;;;;1.00;1.00;;;;;-143.39;100.00;63593.47;4865671;29;45570;-81
2022/05/24 21:39:53;;;;;;;;;1.00;1.00;;;;;-143.39;100.00;63593.47;4866564;29;45365;-81
2022/05/24 21:42:26;;;;;;;;;1.50;1.50;;;;;-143.39;100.00;63593.47;4866851;29;45332;-81
2022/05/24 21:45:21;;;;;;;;;;;;;;;;;;;;;
2022/05/24 21:48:00;;;;;;;;;;;;;;;;;;;;;
2022/05/24 21:50:46;;;;;;;;;1.00;0.25;;;;;-143.39;100.00;63593.47;4863873;29;75579;-81
2022/05/24 21:53:27;;;;;;;;;;;;;;;;;;;;;
2022/05/24 21:56:03;;;;;;;;;;;;;;;;;;;;;
2022/05/24 21:58:29;;;;;;;;;1.50;0.00;;;;;-143.39;100.00;63593.47;4863289;29;72122;-81
2022/05/24 22:01:06;;;;;;;;;5.00;2.25;;;;;-143.39;100.00;63593.47;4864589;29;45593;-81
2022/05/24 22:03:44;;;;;;;;;2.50;1.75;;;;;-143.39;100.00;63593.47;4867707;29;45501;-81
2022/05/24 22:06:22;;;;;;;;;2.00;1.00;;;;;-143.39;100.00;63593.47;4865424;29;45428;-81
2022/05/24 22:08:59;;;;;;;;;2.50;2.00;;;;;-143.39;100.00;63593.47;4867953;29;46537;-81
2022/05/24 22:11:47;;;;;;;;;0.50;0.50;;;;;-143.39;100.00;63593.47;4867112;29;45491;-81
2022/05/24 22:14:22;;;;;;;;;;;;;;;;;;;;;
2022/05/24 22:16:48;;;;;;;;;1.00;1.00;;;;;-143.39;100.00;63593.47;4866423;29;67636;-81
2022/05/24 22:19:28;;;;;;;;;;;;;;;;;;;;;
2022/05/24 22:22:14;;;;;;;;;1.50;0.50;;;;;-143.39;100.00;63593.47;4863449;29;74099;-81
2022/05/24 22:24:47;;;;;;;;;3.00;1.50;;;;;-143.39;100.00;63593.47;4865956;29;45286;-81
2022/05/24 22:27:26;;;;;;;;;3.50;1.00;;;;;-143.39;100.00;63593.47;4862175;29;45231;-81
2022/05/24 22:29:52;;;;;;;;;3.50;2.50;;;;;-143.39;100.00;63593.47;4859196;29;45618;-81
2022/05/24 22:32:27;;;;;;;;;;;;;;;;;;;;;
2022/05/24 22:35:03;;;;;;;;;4.75;1.50;;;;;-143.39;100.00;63593.47;4865927;29;73344;-80
2022/05/24 22:37:33;;;;;;;;;1.00;1.00;;;;;-143.39;100.00;63593.47;4849601;29;45355;-80
2022/05/24 22:40:12;;;;;;;;;;;;;;;;;;;;;
2022/05/24 22:43:00;;;;;;;;;;;;;;;;;;;;;
2022/05/24 22:45:25;;;;;;;;;3.25;2.00;;;;;-143.39;100.00;63593.47;4863532;29;71490;-80
2022/05/24 22:48:14;;;;;;;;;3.25;1.50;;;;;-143.39;100.00;63593.47;4866437;29;45368;-81
2022/05/24 22:50:40;;;;;;;;;3.75;2.00;;;;;-143.39;100.00;63593.47;4858712;29;45337;-80
2022/05/24 22:53:08;;;;;;;;;5.25;3.00;;;;;-143.39;100.00;63593.47;4847829;29;45523;-80
2022/05/24 22:55:52;;;;;;;;;;;;;;;;;;;;;
2022/05/24 22:58:25;;;;;;;;;3.25;3.00;;;;;-143.39;100.00;63593.47;4854040;29;68169;-80
2022/05/24 23:00:51;;;;;;;;;2.00;2.00;;;;;-143.39;100.00;63593.47;4859231;29;45346;-80
2022/05/24 23:03:26;;;;;;;;;4.25;2.25;;;;;-143.39;100.00;63593.47;4866174;29;45466;-80
2022/05/24 23:05:55;;;;;;;;;5.75;2.50;;;;;-143.39;100.00;63593.47;4849208;29;45418;-80
2022/05/24 23:08:32;;;;;;;;;;;;;;;;;;;;;
2022/05/24 23:11:31;;;;;;;;;;;;;;;;;;;;;
2022/05/24 23:14:24;;;;;;;;;;;;;;;;;;;;;
2022/05/24 23:17:16;;;;;;;;;1.50;0.00;;;;;-143.39;100.00;63593.47;4856015;29;71688;-81
2022/05/24 23:19:54;;;;;;;;;;;;;;;;;;;;;
2022/05/24 23:22:25;;;;;;;;;1.00;1.00;;;;;-143.39;100.00;63593.47;4862833;29;71729;-80
2022/05/24 23:25:10;;;;;;;;;1.00;1.00;;;;;-143.39;100.00;63593.47;4866016;29;45396;-81
2022/05/24 23:28:13;;;;;;;;;;;;;;;;;;;;;
2022/05/24 23:30:56;;;;;;;;;;;;;;;;;;;;;
2022/05/24 23:33:37;;;;;;;;;;;;;;;;;;;;;
2022/05/24 23:36:07;;;;;;;;;0.00;0.00;;;;;-143.39;100.00;63593.47;4864322;29;75379;-81
2022/05/24 23:38:50;;;;;;;;;;;;;;;;;;;;;
2022/05/24 23:41:55;;;;;;;;;;;;;;;;;;;;;
2022/05/24 23:47:19;;;;;;;;;;;;;;;;;;;;;
2022/05/24 23:50:09;;;;;;;;;;;;;;;;;;;;;
2022/05/24 23:52:37;;;;;;;;;1.00;1.00;;;;;-143.39;100.00;63593.47;4863053;29;68791;-80
2022/05/24 23:55:07;;;;;;;;;1.75;1.00;;;;;-143.39;100.00;63593.47;4855091;29;45515;-80
2022/05/24 23:57:37;;;;;;;;;1.00;1.00;;;;;-143.39;100.00;63593.47;4863607;29;45635;-80
